createdAt,value
2022-12-26T00:02:15.492Z,27.75
2022-12-26T00:06:32.313Z,27.90
2022-12-26T00:10:48.534Z,29.08
2022-12-26T00:15:05.288Z,26.67
2022-12-26T00:19:21.550Z,33.22
2022-12-26T00:23:38.373Z,27.95
2022-12-26T00:27:54.648Z,26.52
2022-12-26T00:32:10.944Z,31.73
2022-12-26T00:36:30.908Z,35.83
2022-12-26T00:40:47.057Z,28.10
2022-12-26T00:45:03.646Z,33.20
2022-12-26T00:49:19.960Z,34.30
2022-12-26T00:53:36.705Z,30.67
2022-12-26T00:57:52.914Z,30.02
2022-12-26T01:02:29.240Z,31.52
2022-12-26T01:06:45.593Z,31.15
2022-12-26T01:11:12.835Z,33.35
2022-12-26T01:15:29.069Z,30.17
2022-12-26T01:19:45.456Z,37.70
2022-12-26T01:24:02.153Z,36.30
2022-12-26T01:28:18.385Z,37.72
2022-12-26T01:32:34.620Z,37.08
2022-12-26T01:36:52.232Z,32.33
2022-12-26T01:41:17.361Z,32.85
2022-12-26T01:45:33.883Z,33.45
2022-12-26T01:49:53.087Z,33.08
2022-12-26T01:54:40.807Z,34.80
2022-12-26T01:59:12.976Z,33.72
2022-12-26T02:03:47.766Z,29.30
2022-12-26T02:08:14.986Z,30.42
2022-12-26T02:12:38.495Z,32.97
2022-12-26T02:16:56.194Z,36.25
2022-12-26T02:21:56.377Z,32.15
2022-12-26T02:26:31.335Z,33.95
2022-12-26T02:30:50.650Z,33.97
2022-12-26T02:35:31.663Z,37.20
2022-12-26T02:39:56.837Z,36.10
2022-12-26T02:44:51.237Z,38.38
2022-12-26T02:49:29.950Z,33.55
2022-12-26T02:54:55.272Z,40.72
2022-12-26T02:59:55.537Z,38.22
2022-12-26T03:04:34.770Z,36.05
2022-12-26T03:09:29.463Z,44.10
2022-12-26T03:13:46.209Z,34.97
2022-12-26T03:18:06.781Z,41.58
2022-12-26T03:22:32.142Z,40.17
2022-12-26T03:26:54.272Z,37.00
2022-12-26T03:31:15.503Z,42.83
2022-12-26T03:35:34.328Z,40.53
2022-12-26T03:40:17.995Z,41.30
2022-12-26T03:45:10.858Z,38.88
2022-12-26T03:49:49.823Z,39.28
2022-12-26T03:54:32.306Z,35.28
2022-12-26T03:59:14.976Z,34.38
2022-12-26T04:03:52.106Z,39.90
2022-12-26T04:08:36.029Z,34.40
2022-12-26T04:13:12.126Z,36.25
2022-12-26T04:17:50.206Z,33.38
2022-12-26T04:23:02.395Z,39.42
2022-12-26T04:27:40.536Z,39.47
2022-12-26T04:32:27.509Z,40.42
2022-12-26T04:37:20.657Z,36.20
2022-12-26T04:41:56.019Z,39.47
2022-12-26T04:46:12.677Z,38.17
2022-12-26T04:50:29.053Z,35.13
2022-12-26T04:54:45.284Z,41.35
2022-12-26T04:59:01.517Z,33.28
2022-12-26T05:03:36.463Z,36.45
2022-12-26T05:08:11.477Z,34.35
2022-12-26T05:12:27.784Z,43.42
2022-12-26T05:17:02.454Z,39.60
2022-12-26T05:21:37.609Z,39.85
2022-12-26T05:26:12.219Z,38.28
2022-12-26T05:30:28.817Z,40.17
2022-12-26T05:34:45.095Z,36.55
2022-12-26T05:39:02.163Z,34.15
2022-12-26T05:43:20.059Z,37.35
2022-12-26T05:47:36.415Z,38.30
2022-12-26T05:51:52.620Z,38.80
2022-12-26T05:56:14.905Z,39.20
2022-12-26T06:00:31.730Z,37.47
2022-12-26T06:04:47.910Z,43.20
2022-12-26T06:09:04.141Z,39.63
2022-12-26T06:13:20.714Z,38.40
2022-12-26T06:17:37.132Z,38.13
2022-12-26T06:21:53.448Z,36.30
2022-12-26T06:26:10.551Z,42.95
2022-12-26T06:30:26.737Z,35.55
2022-12-26T06:34:43.081Z,39.80
2022-12-26T06:39:01.675Z,39.97
2022-12-26T06:43:18.004Z,35.10
2022-12-26T06:47:34.295Z,33.55
2022-12-26T06:51:50.550Z,36.17
2022-12-26T06:56:15.320Z,37.88
2022-12-26T07:00:31.728Z,39.35
2022-12-26T07:04:48.052Z,37.70
2022-12-26T07:09:10.139Z,37.42
2022-12-26T07:13:26.498Z,36.40
2022-12-26T07:17:42.909Z,41.47
2022-12-26T07:21:59.173Z,45.08
2022-12-26T07:26:15.459Z,41.72
2022-12-26T07:30:31.755Z,39.53
2022-12-26T07:34:47.869Z,38.53
2022-12-26T07:39:04.463Z,44.10
2022-12-26T07:43:20.714Z,40.17
2022-12-26T07:47:37.027Z,40.67
2022-12-26T07:51:53.504Z,38.28
2022-12-26T07:56:09.813Z,40.38
2022-12-26T08:00:26.024Z,36.30
2022-12-26T08:04:42.324Z,40.05
2022-12-26T08:08:58.550Z,40.50
2022-12-26T08:13:15.991Z,45.25
2022-12-26T08:17:33.133Z,47.30
2022-12-26T08:21:51.765Z,42.95
2022-12-26T08:26:10.717Z,38.55
2022-12-26T08:30:27.108Z,46.37
2022-12-26T08:34:43.375Z,47.50
2022-12-26T08:38:59.695Z,42.38
2022-12-26T08:43:42.170Z,39.13
2022-12-26T08:47:54.690Z,41.90
2022-12-26T08:52:10.921Z,44.33
2022-12-26T08:56:28.905Z,47.92
2022-12-26T09:00:46.485Z,44.45
2022-12-26T09:05:05.797Z,46.05
2022-12-26T09:11:37.476Z,42.95
2022-12-26T09:15:53.934Z,48.35
2022-12-26T09:20:10.755Z,46.42
2022-12-26T09:24:26.985Z,43.97
2022-12-26T09:28:45.791Z,43.00
2022-12-26T09:33:04.316Z,48.70
2022-12-26T09:37:20.644Z,48.65
2022-12-26T09:41:42.789Z,45.53
2022-12-26T09:46:13.249Z,47.55
2022-12-26T09:50:41.004Z,48.15
2022-12-26T09:55:02.477Z,51.80
2022-12-26T09:59:21.726Z,44.20
2022-12-26T10:03:43.526Z,49.97
2022-12-26T10:08:11.057Z,45.42
2022-12-26T10:13:01.145Z,47.15
2022-12-26T10:17:43.222Z,51.20
2022-12-26T10:22:08.196Z,43.63
2022-12-26T10:26:29.406Z,36.85
2022-12-26T10:30:47.100Z,41.25
2022-12-26T10:35:16.761Z,34.22
2022-12-26T10:39:48.211Z,34.30
2022-12-26T10:44:04.675Z,31.92
2022-12-26T10:48:21.372Z,25.27
2022-12-26T10:52:40.964Z,31.10
2022-12-26T10:56:59.273Z,28.12
2022-12-26T11:01:37.206Z,32.78
2022-12-26T11:06:10.851Z,31.55
2022-12-26T11:14:45.907Z,33.65
2022-12-26T11:19:02.115Z,41.05
2022-12-26T11:23:48.183Z,34.15
2022-12-26T11:28:19.074Z,34.13
2022-12-26T11:32:35.294Z,37.30
2022-12-26T11:36:51.715Z,33.85
2022-12-26T11:41:32.578Z,31.50
2022-12-26T11:45:51.938Z,31.92
2022-12-26T11:50:19.309Z,35.42
2022-12-26T11:54:38.885Z,35.65
2022-12-26T11:59:13.856Z,34.42
2022-12-26T12:03:49.659Z,34.50
2022-12-26T12:08:20.299Z,30.90
2022-12-26T12:13:02.110Z,35.75
2022-12-26T12:17:44.170Z,33.90
2022-12-26T12:22:34.917Z,34.80
2022-12-26T12:27:06.845Z,35.67
2022-12-26T12:31:51.915Z,37.67
2022-12-26T12:36:18.855Z,37.10
2022-12-26T12:40:41.329Z,38.17
2022-12-26T12:45:16.046Z,38.33
2022-12-26T12:49:44.130Z,36.35
2022-12-26T12:54:09.499Z,35.60
2022-12-26T12:58:31.235Z,34.30
2022-12-26T13:03:17.036Z,34.17
2022-12-26T13:07:45.243Z,35.20
2022-12-26T13:12:06.556Z,35.00
2022-12-26T13:16:43.638Z,31.27
2022-12-26T13:21:08.975Z,30.98
2022-12-26T13:25:27.566Z,33.60
2022-12-26T13:29:47.734Z,35.83
2022-12-26T13:34:07.777Z,39.15
2022-12-26T13:38:26.194Z,36.97
2022-12-26T13:43:08.905Z,38.58
2022-12-26T13:47:51.117Z,37.40
2022-12-26T13:52:15.834Z,40.65
2022-12-26T13:56:31.986Z,37.40
2022-12-26T14:00:48.692Z,39.45
2022-12-26T14:05:32.381Z,47.28
2022-12-26T14:10:04.351Z,39.60
2022-12-26T14:14:57.189Z,46.42
2022-12-26T14:19:32.151Z,40.85
2022-12-26T14:24:18.696Z,41.13
2022-12-26T14:28:43.711Z,45.75
2022-12-26T14:33:27.033Z,40.58
2022-12-26T14:38:22.438Z,45.55
2022-12-26T14:43:10.769Z,42.33
2022-12-26T14:47:38.903Z,44.38
2022-12-26T14:51:55.180Z,41.75
2022-12-26T14:56:36.838Z,46.10
2022-12-26T15:00:54.339Z,49.35
2022-12-26T15:05:22.830Z,48.17
2022-12-26T15:10:15.945Z,43.42
2022-12-26T15:14:59.881Z,41.90
2022-12-26T15:19:44.018Z,45.88
2022-12-26T15:24:26.970Z,47.60
2022-12-26T15:29:33.339Z,49.33
2022-12-26T15:34:11.333Z,47.10
2022-12-26T15:38:42.188Z,46.83
2022-12-26T15:43:10.227Z,48.30
2022-12-26T15:47:47.525Z,51.85
2022-12-26T15:52:08.572Z,49.22
2022-12-26T15:56:48.964Z,46.60
2022-12-26T16:01:05.600Z,49.70
2022-12-26T16:05:31.040Z,47.38
2022-12-26T16:09:53.226Z,48.75
2022-12-26T16:14:25.836Z,52.03
2022-12-26T16:18:41.995Z,44.58
2022-12-26T16:22:58.298Z,50.35
2022-12-26T16:27:24.034Z,48.40
2022-12-26T16:31:40.376Z,53.25
2022-12-26T16:36:00.981Z,45.65
2022-12-26T16:40:21.941Z,54.70
2022-12-26T16:44:40.806Z,55.03
2022-12-26T16:49:01.486Z,53.58
2022-12-26T16:53:20.707Z,53.95
2022-12-26T16:57:36.938Z,51.10
2022-12-26T17:01:58.444Z,50.30
2022-12-26T17:06:52.961Z,51.75
2022-12-26T17:11:09.504Z,56.08
2022-12-26T17:15:36.429Z,54.95
2022-12-26T17:19:54.848Z,51.15
2022-12-26T17:24:25.107Z,55.20
2022-12-26T17:28:41.332Z,57.55
2022-12-26T17:33:23.750Z,53.20
2022-12-26T17:37:40.236Z,59.35
2022-12-26T17:42:01.791Z,47.67
2022-12-26T17:46:18.700Z,53.03
2022-12-26T17:50:43.536Z,62.58
2022-12-26T17:54:59.954Z,55.85
2022-12-26T17:59:16.177Z,44.85
2022-12-26T18:03:32.635Z,58.55
2022-12-26T18:07:50.948Z,59.40
2022-12-26T18:12:07.222Z,58.80
2022-12-26T18:16:28.314Z,99.80
2022-12-26T18:20:44.485Z,64.35
2022-12-26T18:25:00.623Z,92.30
2022-12-26T18:29:16.844Z,247.02
2022-12-26T18:33:33.005Z,59.65
2022-12-26T18:37:51.398Z,87.05
2022-12-26T18:42:11.569Z,78.12
2022-12-26T18:46:29.889Z,83.00
2022-12-26T18:50:46.398Z,80.90
2022-12-26T18:55:02.565Z,114.90
2022-12-26T18:59:18.723Z,60.08
2022-12-26T19:03:34.907Z,71.78
2022-12-26T19:07:51.235Z,66.62
2022-12-26T19:12:07.498Z,73.68
2022-12-26T19:16:23.765Z,89.55
2022-12-26T19:20:44.166Z,55.08
2022-12-26T19:25:00.570Z,82.37
2022-12-26T19:29:16.829Z,158.37
2022-12-26T19:33:32.928Z,169.82
2022-12-26T19:37:49.057Z,131.93
2022-12-26T19:42:05.264Z,194.80
2022-12-26T19:46:21.530Z,287.27
2022-12-26T19:50:37.806Z,609.50
2022-12-26T19:54:54.205Z,162.10
2022-12-26T19:59:10.437Z,300.05
2022-12-26T20:03:26.670Z,134.73
2022-12-26T20:07:42.914Z,278.67
2022-12-26T20:11:59.199Z,204.90
2022-12-26T20:17:03.013Z,98.95
2022-12-26T20:21:01.643Z,83.30
2022-12-26T20:25:18.177Z,196.68
2022-12-26T20:29:34.403Z,103.25
2022-12-26T20:33:52.664Z,94.82
2022-12-26T20:38:09.377Z,76.07
2022-12-26T20:42:25.927Z,119.05
2022-12-26T20:46:42.783Z,154.27
2022-12-26T20:51:00.256Z,105.70
2022-12-26T20:55:20.145Z,278.62
2022-12-26T20:59:37.507Z,168.48
2022-12-26T21:03:55.046Z,315.80
2022-12-26T21:08:11.286Z,116.95
2022-12-26T21:12:27.409Z,292.95
2022-12-26T21:16:46.345Z,213.23
2022-12-26T21:21:13.684Z,151.98
2022-12-26T21:25:30.017Z,236.50
2022-12-26T21:29:46.179Z,293.85
2022-12-26T21:34:03.518Z,136.02
2022-12-26T21:38:24.001Z,177.90
2022-12-26T21:42:40.255Z,204.23
2022-12-26T21:46:56.405Z,200.50
2022-12-26T21:51:16.589Z,93.37
2022-12-26T21:55:36.601Z,95.53
2022-12-26T21:59:59.491Z,121.62
2022-12-26T22:04:23.856Z,120.72
2022-12-26T22:08:40.750Z,112.20
2022-12-26T22:12:57.006Z,110.78
2022-12-26T22:17:13.454Z,60.97
2022-12-26T22:21:29.776Z,73.28
2022-12-26T22:25:54.997Z,51.53
2022-12-26T22:30:11.859Z,48.15
2022-12-26T22:34:28.145Z,51.30
2022-12-26T22:38:44.207Z,43.10
2022-12-26T22:43:00.524Z,44.13
2022-12-26T22:47:16.953Z,39.30
2022-12-26T22:51:33.140Z,38.05
2022-12-26T22:55:51.256Z,34.83
2022-12-26T23:00:11.304Z,35.22
2022-12-26T23:04:30.828Z,30.65
2022-12-26T23:08:47.786Z,33.08
2022-12-26T23:13:04.118Z,32.60
2022-12-26T23:17:40.485Z,31.65
2022-12-26T23:21:58.523Z,31.55
2022-12-26T23:26:14.810Z,33.92
2022-12-26T23:30:31.814Z,32.72
2022-12-26T23:34:48.003Z,32.25
2022-12-26T23:39:04.130Z,30.55
2022-12-26T23:43:20.822Z,33.78
2022-12-26T23:47:38.535Z,32.13
2022-12-26T23:51:54.942Z,30.58
2022-12-26T23:56:11.446Z,30.00
